Terminal Aerodrome Forecast
Issued by NWS

Home | Current Version | Previous Version | Text Only | Print | Product List | Glossary On
Versions: 1 2 3 4 5 6 7 8 9 10 11 12 13 14 15 16 17 18 19 20 21 22
000
FTUS45 KBOI 230143 AAA
TAFMYL
TAF AMD
KMYL 230143Z 2302/2324 15009KT P6SM VCSH SCT008 OVC020
     FM230500 VRB03KT 4SM BR VCSH SCT010 OVC025
     FM230800 VRB03KT 1SM BR BKN008 BKN090
     FM231700 VRB03KT P6SM SCT020 BKN040
     FM231800 33006KT P6SM SCT040 BKN060=

USA.gov is the U.S. government's official web portal to all federal, state and local government web resources and services.